sensor_id;sensor_type;location;lat;lon;timestamp;temperature;humidity
16289;DHT22;26089;43.538;5.250;2023-04-24T00:02:07;13.20;99.90
16289;DHT22;26089;43.538;5.250;2023-04-24T00:04:36;13.30;99.90
16289;DHT22;26089;43.538;5.250;2023-04-24T00:07:05;13.20;99.90
16289;DHT22;26089;43.538;5.250;2023-04-24T00:09:34;13.20;99.90
16289;DHT22;26089;43.538;5.250;2023-04-24T00:12:01;13.20;99.90
16289;DHT22;26089;43.538;5.250;2023-04-24T00:14:30;13.20;99.90
16289;DHT22;26089;43.538;5.250;2023-04-24T00:16:57;13.10;99.90
16289;DHT22;26089;43.538;5.250;2023-04-24T00:19:23;13.10;99.90
16289;DHT22;26089;43.538;5.250;2023-04-24T00:21:50;13.10;99.90
16289;DHT22;26089;43.538;5.250;2023-04-24T00:24:18;13.10;99.90
16289;DHT22;26089;43.538;5.250;2023-04-24T00:26:46;13.20;99.90
16289;DHT22;26089;43.538;5.250;2023-04-24T00:29:13;13.10;99.90
16289;DHT22;26089;43.538;5.250;2023-04-24T00:31:40;13.10;99.90
16289;DHT22;26089;43.538;5.250;2023-04-24T00:34:07;13.10;99.90
16289;DHT22;26089;43.538;5.250;2023-04-24T00:36:36;13.20;99.90
16289;DHT22;26089;43.538;5.250;2023-04-24T00:39:03;13.20;99.90
16289;DHT22;26089;43.538;5.250;2023-04-24T00:41:30;13.10;99.90
16289;DHT22;26089;43.538;5.250;2023-04-24T00:43:58;13.10;99.90
16289;DHT22;26089;43.538;5.250;2023-04-24T00:46:25;13.00;99.90
16289;DHT22;26089;43.538;5.250;2023-04-24T00:48:52;13.10;99.90
16289;DHT22;26089;43.538;5.250;2023-04-24T00:51:19;13.10;99.90
16289;DHT22;26089;43.538;5.250;2023-04-24T00:53:46;13.10;99.90
16289;DHT22;26089;43.538;5.250;2023-04-24T00:56:14;13.00;99.90
16289;DHT22;26089;43.538;5.250;2023-04-24T00:58:41;12.90;99.90
16289;DHT22;26089;43.538;5.250;2023-04-24T01:01:10;12.80;99.90
16289;DHT22;26089;43.538;5.250;2023-04-24T01:03:37;12.80;99.90
16289;DHT22;26089;43.538;5.250;2023-04-24T01:06:05;12.80;99.90
16289;DHT22;26089;43.538;5.250;2023-04-24T01:08:33;12.90;99.90
16289;DHT22;26089;43.538;5.250;2023-04-24T01:11:03;12.80;99.90
16289;DHT22;26089;43.538;5.250;2023-04-24T01:13:31;12.90;99.90
16289;DHT22;26089;43.538;5.250;2023-04-24T01:15:58;12.90;99.90
16289;DHT22;26089;43.538;5.250;2023-04-24T01:18:27;12.90;99.90
16289;DHT22;26089;43.538;5.250;2023-04-24T01:20:57;12.90;99.90
16289;DHT22;26089;43.538;5.250;2023-04-24T01:23:26;12.80;99.90
16289;DHT22;26089;43.538;5.250;2023-04-24T01:25:53;12.80;99.90
16289;DHT22;26089;43.538;5.250;2023-04-24T01:28:20;12.70;99.90
16289;DHT22;26089;43.538;5.250;2023-04-24T01:30:47;12.60;99.90
16289;DHT22;26089;43.538;5.250;2023-04-24T01:33:15;12.60;99.90
16289;DHT22;26089;43.538;5.250;2023-04-24T01:35:42;12.60;99.90
16289;DHT22;26089;43.538;5.250;2023-04-24T01:38:09;12.50;99.90
16289;DHT22;26089;43.538;5.250;2023-04-24T01:40:38;12.50;99.90
16289;DHT22;26089;43.538;5.250;2023-04-24T01:43:05;12.40;99.90
16289;DHT22;26089;43.538;5.250;2023-04-24T01:45:32;12.40;99.90
16289;DHT22;26089;43.538;5.250;2023-04-24T01:48:00;12.50;99.90
16289;DHT22;26089;43.538;5.250;2023-04-24T01:50:27;12.10;99.90
16289;DHT22;26089;43.538;5.250;2023-04-24T01:52:54;12.50;99.90
16289;DHT22;26089;43.538;5.250;2023-04-24T01:55:21;12.40;99.90
16289;DHT22;26089;43.538;5.250;2023-04-24T01:57:50;12.40;99.90
16289;DHT22;26089;43.538;5.250;2023-04-24T02:00:18;12.30;99.90
16289;DHT22;26089;43.538;5.250;2023-04-24T02:02:46;12.30;99.90
16289;DHT22;26089;43.538;5.250;2023-04-24T02:05:13;12.30;99.90
16289;DHT22;26089;43.538;5.250;2023-04-24T02:07:40;12.20;99.90
16289;DHT22;26089;43.538;5.250;2023-04-24T02:10:08;12.20;99.90
16289;DHT22;26089;43.538;5.250;2023-04-24T02:12:35;12.10;99.90
16289;DHT22;26089;43.538;5.250;2023-04-24T02:15:04;12.10;99.90
16289;DHT22;26089;43.538;5.250;2023-04-24T02:17:32;12.10;99.90
16289;DHT22;26089;43.538;5.250;2023-04-24T02:19:59;12.00;99.90
16289;DHT22;26089;43.538;5.250;2023-04-24T02:22:26;12.00;99.90
16289;DHT22;26089;43.538;5.250;2023-04-24T02:24:53;11.90;99.90
16289;DHT22;26089;43.538;5.250;2023-04-24T02:27:20;11.90;99.90
16289;DHT22;26089;43.538;5.250;2023-04-24T02:29:46;11.90;99.90
16289;DHT22;26089;43.538;5.250;2023-04-24T02:32:15;11.90;99.90
16289;DHT22;26089;43.538;5.250;2023-04-24T02:34:42;11.90;99.90
16289;DHT22;26089;43.538;5.250;2023-04-24T02:37:09;11.80;99.90
16289;DHT22;26089;43.538;5.250;2023-04-24T02:39:36;11.80;99.90
16289;DHT22;26089;43.538;5.250;2023-04-24T02:42:03;11.90;99.90
16289;DHT22;26089;43.538;5.250;2023-04-24T02:44:30;11.90;99.90
16289;DHT22;26089;43.538;5.250;2023-04-24T02:46:57;11.90;99.90
16289;DHT22;26089;43.538;5.250;2023-04-24T02:49:26;11.80;99.90
16289;DHT22;26089;43.538;5.250;2023-04-24T02:51:53;11.80;99.90
16289;DHT22;26089;43.538;5.250;2023-04-24T02:54:20;11.70;99.90
16289;DHT22;26089;43.538;5.250;2023-04-24T02:56:47;11.70;99.90
16289;DHT22;26089;43.538;5.250;2023-04-24T02:59:13;11.60;99.90
16289;DHT22;26089;43.538;5.250;2023-04-24T03:01:40;11.60;99.90
16289;DHT22;26089;43.538;5.250;2023-04-24T03:04:07;11.50;99.90
16289;DHT22;26089;43.538;5.250;2023-04-24T03:06:37;11.50;99.90
16289;DHT22;26089;43.538;5.250;2023-04-24T03:09:04;11.40;99.90
16289;DHT22;26089;43.538;5.250;2023-04-24T03:11:31;11.30;99.90
16289;DHT22;26089;43.538;5.250;2023-04-24T03:13:58;11.30;99.90
16289;DHT22;26089;43.538;5.250;2023-04-24T03:16:25;11.00;99.90
16289;DHT22;26089;43.538;5.250;2023-04-24T03:18:52;11.30;99.90
16289;DHT22;26089;43.538;5.250;2023-04-24T03:21:19;11.30;99.90
16289;DHT22;26089;43.538;5.250;2023-04-24T03:23:47;11.50;99.90
16289;DHT22;26089;43.538;5.250;2023-04-24T03:26:14;11.20;99.90
16289;DHT22;26089;43.538;5.250;2023-04-24T03:28:41;11.20;99.90
16289;DHT22;26089;43.538;5.250;2023-04-24T03:31:08;11.10;99.90
16289;DHT22;26089;43.538;5.250;2023-04-24T03:33:35;11.10;99.90
16289;DHT22;26089;43.538;5.250;2023-04-24T03:36:03;11.20;99.90
16289;DHT22;26089;43.538;5.250;2023-04-24T03:38:30;11.20;99.90
16289;DHT22;26089;43.538;5.250;2023-04-24T03:40:58;11.20;99.90
16289;DHT22;26089;43.538;5.250;2023-04-24T03:43:25;11.20;99.90
16289;DHT22;26089;43.538;5.250;2023-04-24T03:45:53;11.20;99.90
16289;DHT22;26089;43.538;5.250;2023-04-24T03:48:20;11.30;99.90
16289;DHT22;26089;43.538;5.250;2023-04-24T03:50:47;11.30;99.90
16289;DHT22;26089;43.538;5.250;2023-04-24T03:53:14;11.40;99.90
16289;DHT22;26089;43.538;5.250;2023-04-24T03:55:41;11.40;99.90
16289;DHT22;26089;43.538;5.250;2023-04-24T03:58:10;11.60;99.90
16289;DHT22;26089;43.538;5.250;2023-04-24T04:00:37;11.70;99.90
16289;DHT22;26089;43.538;5.250;2023-04-24T04:03:05;11.60;99.90
16289;DHT22;26089;43.538;5.250;2023-04-24T04:05:32;11.50;99.90
16289;DHT22;26089;43.538;5.250;2023-04-24T04:07:59;11.60;99.90
16289;DHT22;26089;43.538;5.250;2023-04-24T04:10:26;11.40;99.90
16289;DHT22;26089;43.538;5.250;2023-04-24T04:12:53;11.20;99.90
16289;DHT22;26089;43.538;5.250;2023-04-24T04:15:21;11.20;99.90
16289;DHT22;26089;43.538;5.250;2023-04-24T04:17:48;11.00;99.90
16289;DHT22;26089;43.538;5.250;2023-04-24T04:20:16;11.00;99.90
16289;DHT22;26089;43.538;5.250;2023-04-24T04:22:43;11.00;99.90
16289;DHT22;26089;43.538;5.250;2023-04-24T04:25:10;11.00;99.90
16289;DHT22;26089;43.538;5.250;2023-04-24T04:27:39;11.00;99.90
16289;DHT22;26089;43.538;5.250;2023-04-24T04:30:07;11.00;99.90
16289;DHT22;26089;43.538;5.250;2023-04-24T04:32:36;10.90;99.90
16289;DHT22;26089;43.538;5.250;2023-04-24T04:35:04;10.90;99.90
16289;DHT22;26089;43.538;5.250;2023-04-24T04:37:32;10.90;99.90
16289;DHT22;26089;43.538;5.250;2023-04-24T04:40:00;10.80;99.90
16289;DHT22;26089;43.538;5.250;2023-04-24T04:42:31;10.80;99.90
16289;DHT22;26089;43.538;5.250;2023-04-24T04:44:59;10.80;99.90
16289;DHT22;26089;43.538;5.250;2023-04-24T04:47:26;10.50;99.90
16289;DHT22;26089;43.538;5.250;2023-04-24T04:49:55;10.70;99.90
16289;DHT22;26089;43.538;5.250;2023-04-24T04:52:22;10.70;99.90
16289;DHT22;26089;43.538;5.250;2023-04-24T04:54:52;10.70;99.90
16289;DHT22;26089;43.538;5.250;2023-04-24T04:57:19;10.60;99.90
16289;DHT22;26089;43.538;5.250;2023-04-24T04:59:46;10.90;99.90
16289;DHT22;26089;43.538;5.250;2023-04-24T05:02:13;10.60;99.90
16289;DHT22;26089;43.538;5.250;2023-04-24T05:04:40;10.50;99.90
16289;DHT22;26089;43.538;5.250;2023-04-24T05:07:08;10.60;99.90
16289;DHT22;26089;43.538;5.250;2023-04-24T05:09:35;10.50;99.90
16289;DHT22;26089;43.538;5.250;2023-04-24T05:12:03;10.60;99.90
16289;DHT22;26089;43.538;5.250;2023-04-24T05:14:30;11.40;99.90
16289;DHT22;26089;43.538;5.250;2023-04-24T05:16:57;10.70;99.90
16289;DHT22;26089;43.538;5.250;2023-04-24T05:19:24;10.60;99.90
16289;DHT22;26089;43.538;5.250;2023-04-24T05:21:51;11.00;99.90
16289;DHT22;26089;43.538;5.250;2023-04-24T05:24:19;11.20;99.90
16289;DHT22;26089;43.538;5.250;2023-04-24T05:26:46;11.30;99.90
16289;DHT22;26089;43.538;5.250;2023-04-24T05:29:13;11.40;99.90
16289;DHT22;26089;43.538;5.250;2023-04-24T05:31:40;11.60;99.90
16289;DHT22;26089;43.538;5.250;2023-04-24T05:34:07;11.60;99.90
16289;DHT22;26089;43.538;5.250;2023-04-24T05:36:35;11.60;99.90
16289;DHT22;26089;43.538;5.250;2023-04-24T05:39:02;11.60;99.90
16289;DHT22;26089;43.538;5.250;2023-04-24T05:41:32;11.60;99.90
16289;DHT22;26089;43.538;5.250;2023-04-24T05:43:58;11.70;99.90
16289;DHT22;26089;43.538;5.250;2023-04-24T05:46:25;11.80;99.90
16289;DHT22;26089;43.538;5.250;2023-04-24T05:48:52;11.90;99.90
16289;DHT22;26089;43.538;5.250;2023-04-24T05:51:19;11.90;99.90
16289;DHT22;26089;43.538;5.250;2023-04-24T05:53:46;12.00;99.90
16289;DHT22;26089;43.538;5.250;2023-04-24T05:56:13;12.10;99.90
16289;DHT22;26089;43.538;5.250;2023-04-24T05:58:42;12.30;99.90
16289;DHT22;26089;43.538;5.250;2023-04-24T06:01:09;12.40;99.90
16289;DHT22;26089;43.538;5.250;2023-04-24T06:03:37;13.20;99.90
16289;DHT22;26089;43.538;5.250;2023-04-24T06:06:05;13.90;99.90
16289;DHT22;26089;43.538;5.250;2023-04-24T06:08:32;14.30;99.90
16289;DHT22;26089;43.538;5.250;2023-04-24T06:10:59;14.80;99.90
16289;DHT22;26089;43.538;5.250;2023-04-24T06:13:27;15.70;99.90
16289;DHT22;26089;43.538;5.250;2023-04-24T06:15:55;16.40;99.90
16289;DHT22;26089;43.538;5.250;2023-04-24T06:18:22;16.40;99.90
16289;DHT22;26089;43.538;5.250;2023-04-24T06:20:49;16.50;99.90
16289;DHT22;26089;43.538;5.250;2023-04-24T06:23:17;16.50;99.90
16289;DHT22;26089;43.538;5.250;2023-04-24T06:25:44;16.50;99.90
16289;DHT22;26089;43.538;5.250;2023-04-24T06:28:12;16.60;99.90
16289;DHT22;26089;43.538;5.250;2023-04-24T06:30:39;16.70;99.90
16289;DHT22;26089;43.538;5.250;2023-04-24T06:33:08;16.60;99.90
16289;DHT22;26089;43.538;5.250;2023-04-24T06:35:35;17.00;99.90
16289;DHT22;26089;43.538;5.250;2023-04-24T06:38:03;16.70;99.90
16289;DHT22;26089;43.538;5.250;2023-04-24T06:40:30;16.50;99.90
16289;DHT22;26089;43.538;5.250;2023-04-24T06:42:57;16.30;99.90
16289;DHT22;26089;43.538;5.250;2023-04-24T06:45:25;16.10;99.90
16289;DHT22;26089;43.538;5.250;2023-04-24T06:47:52;16.10;99.90
16289;DHT22;26089;43.538;5.250;2023-04-24T06:50:21;16.10;99.90
16289;DHT22;26089;43.538;5.250;2023-04-24T06:52:48;16.50;99.90
16289;DHT22;26089;43.538;5.250;2023-04-24T06:55:15;16.90;99.90
16289;DHT22;26089;43.538;5.250;2023-04-24T06:57:42;17.40;99.90
16289;DHT22;26089;43.538;5.250;2023-04-24T07:00:11;17.80;99.90
16289;DHT22;26089;43.538;5.250;2023-04-24T07:02:38;17.20;99.90
16289;DHT22;26089;43.538;5.250;2023-04-24T07:05:06;17.10;99.90
16289;DHT22;26089;43.538;5.250;2023-04-24T07:07:35;17.40;99.90
16289;DHT22;26089;43.538;5.250;2023-04-24T07:10:04;17.40;99.90
16289;DHT22;26089;43.538;5.250;2023-04-24T07:12:31;17.20;99.90
16289;DHT22;26089;43.538;5.250;2023-04-24T07:14:58;17.30;99.90
16289;DHT22;26089;43.538;5.250;2023-04-24T07:17:25;17.50;99.90
16289;DHT22;26089;43.538;5.250;2023-04-24T07:19:52;17.40;99.90
16289;DHT22;26089;43.538;5.250;2023-04-24T07:22:19;17.00;99.90
16289;DHT22;26089;43.538;5.250;2023-04-24T07:24:47;17.20;99.90
16289;DHT22;26089;43.538;5.250;2023-04-24T07:27:14;17.70;99.90
16289;DHT22;26089;43.538;5.250;2023-04-24T07:29:41;17.80;99.90
16289;DHT22;26089;43.538;5.250;2023-04-24T07:32:08;18.00;99.90
16289;DHT22;26089;43.538;5.250;2023-04-24T07:34:35;18.20;99.90
16289;DHT22;26089;43.538;5.250;2023-04-24T07:37:02;18.50;99.90
16289;DHT22;26089;43.538;5.250;2023-04-24T07:39:30;19.40;99.90
16289;DHT22;26089;43.538;5.250;2023-04-24T07:41:58;19.00;99.90
16289;DHT22;26089;43.538;5.250;2023-04-24T07:44:27;19.00;99.90
16289;DHT22;26089;43.538;5.250;2023-04-24T07:46:54;19.10;99.90
16289;DHT22;26089;43.538;5.250;2023-04-24T07:49:21;18.70;99.90
16289;DHT22;26089;43.538;5.250;2023-04-24T07:51:49;19.30;99.90
16289;DHT22;26089;43.538;5.250;2023-04-24T07:54:16;19.50;99.90
16289;DHT22;26089;43.538;5.250;2023-04-24T07:56:43;19.60;99.90
16289;DHT22;26089;43.538;5.250;2023-04-24T07:59:11;20.00;99.90
16289;DHT22;26089;43.538;5.250;2023-04-24T08:01:38;19.40;99.90
16289;DHT22;26089;43.538;5.250;2023-04-24T08:04:06;19.50;99.90
16289;DHT22;26089;43.538;5.250;2023-04-24T08:06:33;19.80;99.90
16289;DHT22;26089;43.538;5.250;2023-04-24T08:09:00;20.10;99.90
16289;DHT22;26089;43.538;5.250;2023-04-24T08:11:27;20.70;99.90
16289;DHT22;26089;43.538;5.250;2023-04-24T08:13:54;21.20;99.90
16289;DHT22;26089;43.538;5.250;2023-04-24T08:16:22;20.70;99.90
16289;DHT22;26089;43.538;5.250;2023-04-24T08:18:50;20.70;99.90
16289;DHT22;26089;43.538;5.250;2023-04-24T08:21:17;20.10;99.90
16289;DHT22;26089;43.538;5.250;2023-04-24T08:23:45;20.80;99.90
16289;DHT22;26089;43.538;5.250;2023-04-24T08:26:12;20.20;99.90
16289;DHT22;26089;43.538;5.250;2023-04-24T08:28:40;20.30;99.90
16289;DHT22;26089;43.538;5.250;2023-04-24T08:31:07;20.50;99.90
16289;DHT22;26089;43.538;5.250;2023-04-24T08:33:35;21.00;99.90
16289;DHT22;26089;43.538;5.250;2023-04-24T08:36:03;20.50;99.90
16289;DHT22;26089;43.538;5.250;2023-04-24T08:38:30;20.20;99.90
16289;DHT22;26089;43.538;5.250;2023-04-24T08:40:59;20.40;99.90
16289;DHT22;26089;43.538;5.250;2023-04-24T08:43:26;20.70;99.90
16289;DHT22;26089;43.538;5.250;2023-04-24T08:45:56;20.70;99.90
16289;DHT22;26089;43.538;5.250;2023-04-24T08:48:25;21.40;99.90
16289;DHT22;26089;43.538;5.250;2023-04-24T08:50:55;21.90;99.90
16289;DHT22;26089;43.538;5.250;2023-04-24T08:53:24;21.20;99.90
16289;DHT22;26089;43.538;5.250;2023-04-24T08:55:55;21.40;99.90
16289;DHT22;26089;43.538;5.250;2023-04-24T08:58:24;21.60;99.90
16289;DHT22;26089;43.538;5.250;2023-04-24T09:00:52;22.00;99.90
16289;DHT22;26089;43.538;5.250;2023-04-24T09:03:21;22.30;99.90
16289;DHT22;26089;43.538;5.250;2023-04-24T09:05:49;22.10;99.90
16289;DHT22;26089;43.538;5.250;2023-04-24T09:08:19;21.70;99.90
16289;DHT22;26089;43.538;5.250;2023-04-24T09:10:46;21.60;99.90
16289;DHT22;26089;43.538;5.250;2023-04-24T09:13:13;21.40;99.90
16289;DHT22;26089;43.538;5.250;2023-04-24T09:15:42;21.40;99.90
16289;DHT22;26089;43.538;5.250;2023-04-24T09:18:09;21.50;99.90
16289;DHT22;26089;43.538;5.250;2023-04-24T09:21:00;22.20;99.90
16289;DHT22;26089;43.538;5.250;2023-04-24T09:23:30;22.00;99.90
16289;DHT22;26089;43.538;5.250;2023-04-24T09:25:58;22.20;99.90
16289;DHT22;26089;43.538;5.250;2023-04-24T09:28:29;22.30;99.90
16289;DHT22;26089;43.538;5.250;2023-04-24T09:31:06;22.10;99.90
16289;DHT22;26089;43.538;5.250;2023-04-24T09:33:34;20.80;99.90
16289;DHT22;26089;43.538;5.250;2023-04-24T09:36:01;21.40;99.90
16289;DHT22;26089;43.538;5.250;2023-04-24T09:38:33;21.60;99.90
16289;DHT22;26089;43.538;5.250;2023-04-24T09:41:02;21.00;99.90
16289;DHT22;26089;43.538;5.250;2023-04-24T09:43:29;21.00;99.90
16289;DHT22;26089;43.538;5.250;2023-04-24T09:45:57;21.70;99.90
16289;DHT22;26089;43.538;5.250;2023-04-24T09:48:31;20.70;99.90
16289;DHT22;26089;43.538;5.250;2023-04-24T09:50:59;20.30;99.90
16289;DHT22;26089;43.538;5.250;2023-04-24T09:53:27;20.80;99.90
16289;DHT22;26089;43.538;5.250;2023-04-24T09:55:56;21.70;99.90
16289;DHT22;26089;43.538;5.250;2023-04-24T09:58:26;22.50;99.90
16289;DHT22;26089;43.538;5.250;2023-04-24T10:00:54;22.40;99.90
16289;DHT22;26089;43.538;5.250;2023-04-24T10:03:24;22.40;99.90
16289;DHT22;26089;43.538;5.250;2023-04-24T10:05:52;21.20;99.90
16289;DHT22;26089;43.538;5.250;2023-04-24T10:08:19;20.60;99.90
16289;DHT22;26089;43.538;5.250;2023-04-24T10:10:47;21.20;99.90
16289;DHT22;26089;43.538;5.250;2023-04-24T10:13:15;22.10;99.90
16289;DHT22;26089;43.538;5.250;2023-04-24T10:15:42;21.50;99.90
16289;DHT22;26089;43.538;5.250;2023-04-24T10:18:10;21.40;99.90
16289;DHT22;26089;43.538;5.250;2023-04-24T10:20:39;21.10;99.90
16289;DHT22;26089;43.538;5.250;2023-04-24T10:23:06;21.90;99.90
16289;DHT22;26089;43.538;5.250;2023-04-24T10:25:35;22.70;99.90
16289;DHT22;26089;43.538;5.250;2023-04-24T10:28:03;23.30;99.90
16289;DHT22;26089;43.538;5.250;2023-04-24T10:30:33;23.20;99.90
16289;DHT22;26089;43.538;5.250;2023-04-24T10:33:02;23.60;99.90
16289;DHT22;26089;43.538;5.250;2023-04-24T10:35:31;24.20;99.90
16289;DHT22;26089;43.538;5.250;2023-04-24T10:38:02;23.60;99.90
16289;DHT22;26089;43.538;5.250;2023-04-24T10:40:32;23.30;99.90
16289;DHT22;26089;43.538;5.250;2023-04-24T10:43:01;23.50;99.90
16289;DHT22;26089;43.538;5.250;2023-04-24T10:45:28;24.10;99.90
16289;DHT22;26089;43.538;5.250;2023-04-24T10:48:02;25.00;99.90
16289;DHT22;26089;43.538;5.250;2023-04-24T10:50:41;23.70;99.90
16289;DHT22;26089;43.538;5.250;2023-04-24T10:53:13;22.60;99.90
16289;DHT22;26089;43.538;5.250;2023-04-24T10:55:46;23.40;99.90
16289;DHT22;26089;43.538;5.250;2023-04-24T10:58:14;23.50;99.90
16289;DHT22;26089;43.538;5.250;2023-04-24T11:00:43;24.20;99.90
16289;DHT22;26089;43.538;5.250;2023-04-24T11:03:25;24.40;99.90
16289;DHT22;26089;43.538;5.250;2023-04-24T11:05:55;24.10;99.90
16289;DHT22;26089;43.538;5.250;2023-04-24T11:08:28;23.90;99.90
16289;DHT22;26089;43.538;5.250;2023-04-24T11:10:58;23.80;99.90
16289;DHT22;26089;43.538;5.250;2023-04-24T11:13:27;24.20;99.90
16289;DHT22;26089;43.538;5.250;2023-04-24T11:16:14;23.80;99.90
16289;DHT22;26089;43.538;5.250;2023-04-24T11:18:43;23.50;99.90
16289;DHT22;26089;43.538;5.250;2023-04-24T11:21:17;23.30;99.90
16289;DHT22;26089;43.538;5.250;2023-04-24T11:23:45;23.60;99.90
16289;DHT22;26089;43.538;5.250;2023-04-24T11:26:14;23.80;99.90
16289;DHT22;26089;43.538;5.250;2023-04-24T11:29:06;24.50;99.90
16289;DHT22;26089;43.538;5.250;2023-04-24T11:31:38;25.60;99.90
16289;DHT22;26089;43.538;5.250;2023-04-24T11:34:11;25.50;99.90
16289;DHT22;26089;43.538;5.250;2023-04-24T11:36:39;25.10;99.90
16289;DHT22;26089;43.538;5.250;2023-04-24T11:39:06;25.20;99.90
16289;DHT22;26089;43.538;5.250;2023-04-24T11:41:33;25.40;99.90
16289;DHT22;26089;43.538;5.250;2023-04-24T11:44:01;25.70;99.90
16289;DHT22;26089;43.538;5.250;2023-04-24T11:46:30;25.40;99.90
16289;DHT22;26089;43.538;5.250;2023-04-24T11:48:58;24.60;99.90
16289;DHT22;26089;43.538;5.250;2023-04-24T11:51:27;23.70;99.90
16289;DHT22;26089;43.538;5.250;2023-04-24T11:53:54;23.60;99.90
16289;DHT22;26089;43.538;5.250;2023-04-24T11:56:22;23.70;99.90
16289;DHT22;26089;43.538;5.250;2023-04-24T11:58:51;23.30;99.90
16289;DHT22;26089;43.538;5.250;2023-04-24T12:01:18;23.50;99.90
16289;DHT22;26089;43.538;5.250;2023-04-24T12:03:48;24.10;99.90
16289;DHT22;26089;43.538;5.250;2023-04-24T12:06:17;24.10;99.90
16289;DHT22;26089;43.538;5.250;2023-04-24T12:08:47;24.00;99.90
16289;DHT22;26089;43.538;5.250;2023-04-24T12:11:16;23.20;99.90
16289;DHT22;26089;43.538;5.250;2023-04-24T12:13:45;22.70;99.90
16289;DHT22;26089;43.538;5.250;2023-04-24T12:16:12;22.60;99.90
16289;DHT22;26089;43.538;5.250;2023-04-24T12:18:43;23.20;99.90
16289;DHT22;26089;43.538;5.250;2023-04-24T12:21:21;23.60;99.90
16289;DHT22;26089;43.538;5.250;2023-04-24T12:23:53;23.90;99.90
16289;DHT22;26089;43.538;5.250;2023-04-24T12:26:20;24.40;99.90
16289;DHT22;26089;43.538;5.250;2023-04-24T12:28:49;24.60;99.90
16289;DHT22;26089;43.538;5.250;2023-04-24T12:31:16;24.60;99.90
16289;DHT22;26089;43.538;5.250;2023-04-24T12:33:43;25.00;99.90
16289;DHT22;26089;43.538;5.250;2023-04-24T12:36:11;25.00;99.90
16289;DHT22;26089;43.538;5.250;2023-04-24T12:38:39;25.40;99.90
16289;DHT22;26089;43.538;5.250;2023-04-24T12:41:12;25.00;99.90
16289;DHT22;26089;43.538;5.250;2023-04-24T12:43:51;25.30;99.90
16289;DHT22;26089;43.538;5.250;2023-04-24T12:46:18;24.40;99.90
16289;DHT22;26089;43.538;5.250;2023-04-24T12:48:45;24.30;99.90
16289;DHT22;26089;43.538;5.250;2023-04-24T12:51:12;24.30;99.90
16289;DHT22;26089;43.538;5.250;2023-04-24T12:53:39;24.20;99.90
16289;DHT22;26089;43.538;5.250;2023-04-24T12:56:06;23.60;99.90
16289;DHT22;26089;43.538;5.250;2023-04-24T12:58:34;23.30;99.90
16289;DHT22;26089;43.538;5.250;2023-04-24T13:01:01;23.00;99.90
16289;DHT22;26089;43.538;5.250;2023-04-24T13:03:28;23.00;99.90
16289;DHT22;26089;43.538;5.250;2023-04-24T13:05:55;22.50;99.90
16289;DHT22;26089;43.538;5.250;2023-04-24T13:08:22;22.40;99.90
16289;DHT22;26089;43.538;5.250;2023-04-24T13:10:49;22.60;99.90
16289;DHT22;26089;43.538;5.250;2023-04-24T13:13:17;22.60;99.90
16289;DHT22;26089;43.538;5.250;2023-04-24T13:15:45;22.70;99.90
16289;DHT22;26089;43.538;5.250;2023-04-24T13:18:12;22.50;99.90
16289;DHT22;26089;43.538;5.250;2023-04-24T13:20:39;22.60;99.90
16289;DHT22;26089;43.538;5.250;2023-04-24T13:23:07;22.50;99.90
16289;DHT22;26089;43.538;5.250;2023-04-24T13:25:35;22.10;99.90
16289;DHT22;26089;43.538;5.250;2023-04-24T13:28:02;21.80;99.90
16289;DHT22;26089;43.538;5.250;2023-04-24T13:30:30;21.70;99.90
16289;DHT22;26089;43.538;5.250;2023-04-24T13:32:59;21.90;99.90
16289;DHT22;26089;43.538;5.250;2023-04-24T13:35:26;21.90;99.90
16289;DHT22;26089;43.538;5.250;2023-04-24T13:37:53;21.90;99.90
16289;DHT22;26089;43.538;5.250;2023-04-24T13:40:20;21.90;99.90
16289;DHT22;26089;43.538;5.250;2023-04-24T13:42:46;21.70;99.90
16289;DHT22;26089;43.538;5.250;2023-04-24T13:45:13;21.70;99.90
16289;DHT22;26089;43.538;5.250;2023-04-24T13:47:41;21.90;99.90
16289;DHT22;26089;43.538;5.250;2023-04-24T13:50:10;21.90;99.90
16289;DHT22;26089;43.538;5.250;2023-04-24T13:52:37;21.70;99.90
16289;DHT22;26089;43.538;5.250;2023-04-24T13:55:04;21.90;99.90
16289;DHT22;26089;43.538;5.250;2023-04-24T13:57:31;22.20;99.90
16289;DHT22;26089;43.538;5.250;2023-04-24T13:59:58;22.60;99.90
16289;DHT22;26089;43.538;5.250;2023-04-24T14:02:27;23.00;99.90
16289;DHT22;26089;43.538;5.250;2023-04-24T14:04:54;23.20;99.90
16289;DHT22;26089;43.538;5.250;2023-04-24T14:07:22;23.30;99.90
16289;DHT22;26089;43.538;5.250;2023-04-24T14:09:49;23.90;99.90
16289;DHT22;26089;43.538;5.250;2023-04-24T14:12:16;24.00;99.90
16289;DHT22;26089;43.538;5.250;2023-04-24T14:14:45;24.00;99.90
16289;DHT22;26089;43.538;5.250;2023-04-24T14:17:13;23.50;99.90
16289;DHT22;26089;43.538;5.250;2023-04-24T14:19:40;23.80;99.90
16289;DHT22;26089;43.538;5.250;2023-04-24T14:22:07;23.50;99.90
16289;DHT22;26089;43.538;5.250;2023-04-24T14:24:35;23.90;99.90
16289;DHT22;26089;43.538;5.250;2023-04-24T14:27:03;24.00;99.90
16289;DHT22;26089;43.538;5.250;2023-04-24T14:29:30;24.30;99.90
16289;DHT22;26089;43.538;5.250;2023-04-24T14:31:57;24.40;99.90
16289;DHT22;26089;43.538;5.250;2023-04-24T14:34:23;24.60;99.90
16289;DHT22;26089;43.538;5.250;2023-04-24T14:36:52;24.60;99.90
16289;DHT22;26089;43.538;5.250;2023-04-24T14:39:19;24.10;99.90
16289;DHT22;26089;43.538;5.250;2023-04-24T14:41:47;24.10;99.90
16289;DHT22;26089;43.538;5.250;2023-04-24T14:44:14;23.80;99.90
16289;DHT22;26089;43.538;5.250;2023-04-24T14:46:41;24.10;99.90
16289;DHT22;26089;43.538;5.250;2023-04-24T14:49:08;24.40;99.90
16289;DHT22;26089;43.538;5.250;2023-04-24T14:51:37;24.70;99.90
16289;DHT22;26089;43.538;5.250;2023-04-24T14:54:04;24.30;99.90
16289;DHT22;26089;43.538;5.250;2023-04-24T14:56:31;24.50;99.90
16289;DHT22;26089;43.538;5.250;2023-04-24T14:58:59;24.50;99.90
16289;DHT22;26089;43.538;5.250;2023-04-24T15:01:26;24.70;99.90
16289;DHT22;26089;43.538;5.250;2023-04-24T15:03:53;24.80;99.90
16289;DHT22;26089;43.538;5.250;2023-04-24T15:06:20;24.60;99.90
16289;DHT22;26089;43.538;5.250;2023-04-24T15:08:48;24.90;99.90
16289;DHT22;26089;43.538;5.250;2023-04-24T15:11:15;24.60;99.80
16289;DHT22;26089;43.538;5.250;2023-04-24T15:13:42;24.40;99.90
16289;DHT22;26089;43.538;5.250;2023-04-24T15:16:12;24.10;99.90
16289;DHT22;26089;43.538;5.250;2023-04-24T15:18:39;23.80;99.90
16289;DHT22;26089;43.538;5.250;2023-04-24T15:21:06;23.50;99.90
16289;DHT22;26089;43.538;5.250;2023-04-24T15:23:33;23.20;99.90
16289;DHT22;26089;43.538;5.250;2023-04-24T15:26:00;23.40;99.90
16289;DHT22;26089;43.538;5.250;2023-04-24T15:28:27;23.70;99.90
16289;DHT22;26089;43.538;5.250;2023-04-24T15:30:54;24.00;99.70
16289;DHT22;26089;43.538;5.250;2023-04-24T15:33:23;24.10;99.70
16289;DHT22;26089;43.538;5.250;2023-04-24T15:35:51;23.90;98.90